Terminal Aerodrome Forecast
Issued by NWS Topeka, KS

Home | Current Version | Previous Version | Text Only | Print | Product List | Glossary Off
Versions: 1 2 3 4 5 6 7 8 9 10 11 12 13

000
FTUS43 KTOP 161100
TAFTOP
TAF
KTOP 161123Z 1612/1712 17015G24KT P6SM SCT200
     FM161400 19027G36KT P6SM BKN180
     FM162200 21014G23KT P6SM SCT080
     FM170100 29006KT P6SM BKN080=

USA.gov is the U.S. government's official web portal to all federal, state and local government web resources and services.